Barlow, North Dakota
Current Conditions -  °F | °C
As of 2:15 PM on Saturday 25 Oct 2014 (Local Time) from K46D Reporting Station
Clear Clear  
Wind Chill: 57°   Ceiling: Unl
Heat Index: 57°   Visibility: 10mi
Dew Point: 23°   Wind: 12mph
Humidity: 27%   Direction: 330°NNW
Pressure: 30.11"   Gusts: 17mph
Location:  47.4573°N, 99.0752°W
Report Text: K46D 251915Z AUTO 33010G15KT 10SM CLR 14/M05 A3011 RMK AO2
Loading
Personal Weather Stations






























Interactive Weather Map
Tropical Storm Tracking
New forecast layout! Learn more

10-Day Weather Forecast

Advertisements
Track Severe Weather on mobile